sensor_id;sensor_type;location;lat;lon;timestamp;pressure;altitude;pressure_sealevel;temperature;humidity
61472;BME280;47337;54.068;12.114;2022-12-13T00:01:49;100627.25;;;-1.55;100.00
61472;BME280;47337;54.068;12.114;2022-12-13T00:04:16;100641.00;;;-1.55;100.00
61472;BME280;47337;54.068;12.114;2022-12-13T00:06:42;100649.81;;;-1.66;100.00
61472;BME280;47337;54.068;12.114;2022-12-13T00:09:09;100657.44;;;-1.67;100.00
61472;BME280;47337;54.068;12.114;2022-12-13T00:11:35;100662.34;;;-1.72;100.00
61472;BME280;47337;54.068;12.114;2022-12-13T00:14:01;100666.50;;;-1.59;100.00
61472;BME280;47337;54.068;12.114;2022-12-13T00:16:26;100666.13;;;-1.51;100.00
61472;BME280;47337;54.068;12.114;2022-12-13T00:18:57;100671.38;;;-1.49;100.00
61472;BME280;47337;54.068;12.114;2022-12-13T00:21:29;100675.19;;;-1.26;100.00
61472;BME280;47337;54.068;12.114;2022-12-13T00:23:56;100670.03;;;-1.26;100.00
61472;BME280;47337;54.068;12.114;2022-12-13T00:26:26;100668.06;;;-1.16;100.00
61472;BME280;47337;54.068;12.114;2022-12-13T00:28:52;100666.38;;;-1.15;100.00
61472;BME280;47337;54.068;12.114;2022-12-13T00:31:20;100665.66;;;-1.13;100.00
61472;BME280;47337;54.068;12.114;2022-12-13T00:33:48;100667.41;;;-0.97;100.00
61472;BME280;47337;54.068;12.114;2022-12-13T00:36:14;100675.44;;;-0.91;100.00
61472;BME280;47337;54.068;12.114;2022-12-13T00:38:39;100657.72;;;-1.01;100.00
61472;BME280;47337;54.068;12.114;2022-12-13T00:41:16;100641.59;;;-1.13;100.00
61472;BME280;47337;54.068;12.114;2022-12-13T00:43:43;100662.59;;;-1.05;100.00
61472;BME280;47337;54.068;12.114;2022-12-13T00:46:17;100659.97;;;-1.07;100.00
61472;BME280;47337;54.068;12.114;2022-12-13T00:48:47;100654.28;;;-1.16;100.00
61472;BME280;47337;54.068;12.114;2022-12-13T00:51:12;100652.69;;;-1.14;100.00
61472;BME280;47337;54.068;12.114;2022-12-13T00:53:38;100659.63;;;-1.13;100.00
61472;BME280;47337;54.068;12.114;2022-12-13T00:56:03;100669.75;;;-1.16;100.00
61472;BME280;47337;54.068;12.114;2022-12-13T00:58:29;100683.16;;;-1.07;100.00
61472;BME280;47337;54.068;12.114;2022-12-13T01:01:08;100688.41;;;-1.20;100.00
61472;BME280;47337;54.068;12.114;2022-12-13T01:03:35;100696.47;;;-1.14;100.00
61472;BME280;47337;54.068;12.114;2022-12-13T01:06:08;100700.66;;;-1.16;100.00
61472;BME280;47337;54.068;12.114;2022-12-13T01:08:36;100703.06;;;-1.19;100.00
61472;BME280;47337;54.068;12.114;2022-12-13T01:11:02;100694.47;;;-1.34;100.00
61472;BME280;47337;54.068;12.114;2022-12-13T01:13:28;100708.31;;;-1.18;100.00
61472;BME280;47337;54.068;12.114;2022-12-13T01:15:53;100702.41;;;-1.15;100.00
61472;BME280;47337;54.068;12.114;2022-12-13T01:18:19;100717.03;;;-1.30;100.00
61472;BME280;47337;54.068;12.114;2022-12-13T01:21:04;100713.16;;;-1.38;100.00
61472;BME280;47337;54.068;12.114;2022-12-13T01:23:31;100708.94;;;-1.36;100.00
61472;BME280;47337;54.068;12.114;2022-12-13T01:25:57;100720.22;;;-1.34;100.00
61472;BME280;47337;54.068;12.114;2022-12-13T01:28:25;100722.97;;;-1.31;100.00
61472;BME280;47337;54.068;12.114;2022-12-13T01:31:11;100723.50;;;-1.37;100.00
61472;BME280;47337;54.068;12.114;2022-12-13T01:33:37;100727.16;;;-1.48;100.00
61472;BME280;47337;54.068;12.114;2022-12-13T01:36:06;100733.19;;;-1.48;100.00
61472;BME280;47337;54.068;12.114;2022-12-13T01:38:33;100735.09;;;-1.60;100.00
61472;BME280;47337;54.068;12.114;2022-12-13T01:41:01;100742.44;;;-1.66;100.00
61472;BME280;47337;54.068;12.114;2022-12-13T01:46:16;100741.28;;;-1.71;100.00
61472;BME280;47337;54.068;12.114;2022-12-13T01:49:07;100748.28;;;-1.68;100.00
61472;BME280;47337;54.068;12.114;2022-12-13T01:51:43;100741.28;;;-1.71;100.00
61472;BME280;47337;54.068;12.114;2022-12-13T01:54:13;100745.53;;;-1.86;100.00
61472;BME280;47337;54.068;12.114;2022-12-13T01:56:47;100738.41;;;-1.90;100.00
61472;BME280;47337;54.068;12.114;2022-12-13T01:59:16;100740.72;;;-1.80;100.00
61472;BME280;47337;54.068;12.114;2022-12-13T02:01:42;100736.03;;;-1.87;100.00
61472;BME280;47337;54.068;12.114;2022-12-13T02:04:08;100741.38;;;-1.84;100.00
61472;BME280;47337;54.068;12.114;2022-12-13T02:09:00;100728.41;;;-1.86;100.00
61472;BME280;47337;54.068;12.114;2022-12-13T02:11:26;100724.88;;;-1.73;100.00
61472;BME280;47337;54.068;12.114;2022-12-13T02:13:52;100721.59;;;-1.85;100.00
61472;BME280;47337;54.068;12.114;2022-12-13T02:30:09;100688.84;;;-2.02;100.00
61472;BME280;47337;54.068;12.114;2022-12-13T02:33:00;100689.28;;;-2.09;100.00
61472;BME280;47337;54.068;12.114;2022-12-13T02:43:44;100673.50;;;-2.58;100.00
61472;BME280;47337;54.068;12.114;2022-12-13T02:46:20;100670.63;;;-2.77;100.00
61472;BME280;47337;54.068;12.114;2022-12-13T02:48:47;100674.88;;;-2.78;100.00
61472;BME280;47337;54.068;12.114;2022-12-13T02:51:14;100680.88;;;-2.77;100.00
61472;BME280;47337;54.068;12.114;2022-12-13T02:53:44;100680.22;;;-2.88;100.00
61472;BME280;47337;54.068;12.114;2022-12-13T02:56:10;100685.63;;;-2.83;100.00
61472;BME280;47337;54.068;12.114;2022-12-13T02:58:46;100687.94;;;-2.88;100.00
61472;BME280;47337;54.068;12.114;2022-12-13T03:04:17;100687.88;;;-2.75;100.00
61472;BME280;47337;54.068;12.114;2022-12-13T03:12:12;100676.91;;;-2.72;100.00
61472;BME280;47337;54.068;12.114;2022-12-13T03:17:36;100672.69;;;-2.85;100.00
61472;BME280;47337;54.068;12.114;2022-12-13T03:20:05;100672.53;;;-2.88;100.00
61472;BME280;47337;54.068;12.114;2022-12-13T03:22:33;100673.47;;;-2.86;100.00
61472;BME280;47337;54.068;12.114;2022-12-13T03:24:59;100678.72;;;-2.84;100.00
61472;BME280;47337;54.068;12.114;2022-12-13T03:27:24;100676.16;;;-2.84;100.00
61472;BME280;47337;54.068;12.114;2022-12-13T03:29:49;100684.84;;;-2.82;100.00
61472;BME280;47337;54.068;12.114;2022-12-13T03:32:15;100687.59;;;-2.79;100.00
61472;BME280;47337;54.068;12.114;2022-12-13T03:34:40;100682.25;;;-2.69;100.00
61472;BME280;47337;54.068;12.114;2022-12-13T03:37:08;100686.50;;;-2.27;100.00
61472;BME280;47337;54.068;12.114;2022-12-13T03:39:36;100668.16;;;-2.33;100.00
61472;BME280;47337;54.068;12.114;2022-12-13T03:42:01;100659.56;;;-2.34;100.00
61472;BME280;47337;54.068;12.114;2022-12-13T03:44:27;100654.44;;;-2.34;100.00
61472;BME280;47337;54.068;12.114;2022-12-13T03:46:52;100645.38;;;-2.27;100.00
61472;BME280;47337;54.068;12.114;2022-12-13T03:49:18;100636.78;;;-2.28;100.00
61472;BME280;47337;54.068;12.114;2022-12-13T03:51:44;100629.41;;;-2.22;100.00
61472;BME280;47337;54.068;12.114;2022-12-13T03:54:09;100631.38;;;-2.17;100.00
61472;BME280;47337;54.068;12.114;2022-12-13T03:56:35;100615.00;;;-2.05;100.00
61472;BME280;47337;54.068;12.114;2022-12-13T03:59:00;100611.78;;;-2.01;100.00
61472;BME280;47337;54.068;12.114;2022-12-13T04:01:28;100597.09;;;-2.03;100.00
61472;BME280;47337;54.068;12.114;2022-12-13T04:03:56;100588.56;;;-2.02;100.00
61472;BME280;47337;54.068;12.114;2022-12-13T04:06:21;100582.25;;;-1.93;100.00
61472;BME280;47337;54.068;12.114;2022-12-13T04:08:50;100574.50;;;-1.78;100.00
61472;BME280;47337;54.068;12.114;2022-12-13T04:11:16;100569.75;;;-1.87;100.00
61472;BME280;47337;54.068;12.114;2022-12-13T04:13:59;100563.34;;;-1.78;100.00
61472;BME280;47337;54.068;12.114;2022-12-13T04:16:25;100553.78;;;-1.81;100.00
61472;BME280;47337;54.068;12.114;2022-12-13T04:18:50;100550.13;;;-1.85;100.00
61472;BME280;47337;54.068;12.114;2022-12-13T04:21:16;100553.41;;;-1.87;100.00
61472;BME280;47337;54.068;12.114;2022-12-13T04:23:43;100553.19;;;-1.92;100.00
61472;BME280;47337;54.068;12.114;2022-12-13T04:26:16;100549.94;;;-1.73;100.00
61472;BME280;47337;54.068;12.114;2022-12-13T04:28:41;100539.22;;;-1.80;100.00
61472;BME280;47337;54.068;12.114;2022-12-13T04:31:06;100534.63;;;-1.86;100.00
61472;BME280;47337;54.068;12.114;2022-12-13T04:33:32;100543.59;;;-1.94;100.00
61472;BME280;47337;54.068;12.114;2022-12-13T04:35:57;100544.13;;;-2.00;100.00
61472;BME280;47337;54.068;12.114;2022-12-13T04:38:25;100551.94;;;-1.98;100.00
61472;BME280;47337;54.068;12.114;2022-12-13T04:40:51;100554.31;;;-2.01;100.00
61472;BME280;47337;54.068;12.114;2022-12-13T04:43:16;100565.25;;;-2.05;100.00
61472;BME280;47337;54.068;12.114;2022-12-13T04:45:44;100568.63;;;-2.06;100.00
61472;BME280;47337;54.068;12.114;2022-12-13T04:48:09;100576.25;;;-2.08;100.00
61472;BME280;47337;54.068;12.114;2022-12-13T04:50:35;100581.47;;;-2.06;100.00
61472;BME280;47337;54.068;12.114;2022-12-13T04:53:02;100589.19;;;-2.06;100.00
61472;BME280;47337;54.068;12.114;2022-12-13T04:55:27;100591.94;;;-2.03;100.00
61472;BME280;47337;54.068;12.114;2022-12-13T04:57:53;100590.97;;;-2.05;100.00
61472;BME280;47337;54.068;12.114;2022-12-13T05:00:18;100589.38;;;-2.03;100.00
61472;BME280;47337;54.068;12.114;2022-12-13T05:02:46;100593.78;;;-2.01;100.00
61472;BME280;47337;54.068;12.114;2022-12-13T05:05:14;100593.63;;;-2.04;100.00
61472;BME280;47337;54.068;12.114;2022-12-13T05:07:40;100587.22;;;-2.10;100.00
61472;BME280;47337;54.068;12.114;2022-12-13T05:10:06;100593.63;;;-2.18;100.00
61472;BME280;47337;54.068;12.114;2022-12-13T05:12:32;100590.34;;;-2.31;100.00
61472;BME280;47337;54.068;12.114;2022-12-13T05:15:00;100589.00;;;-2.39;100.00
61472;BME280;47337;54.068;12.114;2022-12-13T05:17:25;100587.03;;;-2.43;100.00
61472;BME280;47337;54.068;12.114;2022-12-13T05:19:54;100593.63;;;-2.48;100.00
61472;BME280;47337;54.068;12.114;2022-12-13T05:22:22;100605.47;;;-2.50;100.00
61472;BME280;47337;54.068;12.114;2022-12-13T05:24:47;100623.22;;;-2.54;100.00
61472;BME280;47337;54.068;12.114;2022-12-13T05:27:13;100622.13;;;-2.58;100.00
61472;BME280;47337;54.068;12.114;2022-12-13T05:29:38;100623.53;;;-2.63;100.00
61472;BME280;47337;54.068;12.114;2022-12-13T05:32:04;100626.88;;;-2.64;100.00
61472;BME280;47337;54.068;12.114;2022-12-13T05:34:29;100633.78;;;-2.63;100.00
61472;BME280;47337;54.068;12.114;2022-12-13T05:36:54;100638.94;;;-2.63;100.00
61472;BME280;47337;54.068;12.114;2022-12-13T05:39:20;100647.53;;;-2.63;100.00
61472;BME280;47337;54.068;12.114;2022-12-13T05:41:45;100642.22;;;-2.66;100.00
61472;BME280;47337;54.068;12.114;2022-12-13T05:44:11;100644.31;;;-2.73;100.00
61472;BME280;47337;54.068;12.114;2022-12-13T05:46:39;100649.53;;;-2.72;100.00
61472;BME280;47337;54.068;12.114;2022-12-13T05:49:07;100648.66;;;-2.72;100.00
61472;BME280;47337;54.068;12.114;2022-12-13T05:51:33;100661.31;;;-2.75;100.00
61472;BME280;47337;54.068;12.114;2022-12-13T05:53:58;100660.34;;;-2.77;100.00
61472;BME280;47337;54.068;12.114;2022-12-13T05:56:26;100670.88;;;-2.73;100.00
61472;BME280;47337;54.068;12.114;2022-12-13T05:58:51;100663.00;;;-2.76;100.00
61472;BME280;47337;54.068;12.114;2022-12-13T06:01:18;100666.88;;;-2.82;100.00
61472;BME280;47337;54.068;12.114;2022-12-13T06:03:44;100661.38;;;-2.88;100.00
61472;BME280;47337;54.068;12.114;2022-12-13T06:06:11;100659.03;;;-2.99;100.00
61472;BME280;47337;54.068;12.114;2022-12-13T06:08:36;100660.81;;;-2.98;100.00
61472;BME280;47337;54.068;12.114;2022-12-13T06:11:04;100662.53;;;-2.97;100.00
61472;BME280;47337;54.068;12.114;2022-12-13T06:13:29;100658.31;;;-2.96;100.00
61472;BME280;47337;54.068;12.114;2022-12-13T06:16:02;100666.06;;;-2.81;100.00
61472;BME280;47337;54.068;12.114;2022-12-13T06:18:32;100684.41;;;-2.75;100.00
61472;BME280;47337;54.068;12.114;2022-12-13T06:21:00;100683.03;;;-2.70;100.00
61472;BME280;47337;54.068;12.114;2022-12-13T06:23:26;100692.19;;;-2.61;100.00
61472;BME280;47337;54.068;12.114;2022-12-13T06:25:52;100696.72;;;-2.56;100.00
61472;BME280;47337;54.068;12.114;2022-12-13T06:28:18;100691.72;;;-2.68;100.00
61472;BME280;47337;54.068;12.114;2022-12-13T06:30:43;100691.81;;;-2.67;100.00
61472;BME280;47337;54.068;12.114;2022-12-13T06:33:11;100688.16;;;-2.70;100.00
61472;BME280;47337;54.068;12.114;2022-12-13T06:35:42;100686.63;;;-2.81;100.00
61472;BME280;47337;54.068;12.114;2022-12-13T06:38:10;100679.25;;;-2.90;100.00
61472;BME280;47337;54.068;12.114;2022-12-13T06:40:35;100680.13;;;-2.89;100.00
61472;BME280;47337;54.068;12.114;2022-12-13T06:43:00;100681.94;;;-3.02;100.00
61472;BME280;47337;54.068;12.114;2022-12-13T06:45:26;100678.09;;;-3.08;100.00
61472;BME280;47337;54.068;12.114;2022-12-13T06:47:51;100680.88;;;-3.18;100.00
61472;BME280;47337;54.068;12.114;2022-12-13T06:50:19;100677.03;;;-3.25;100.00
61472;BME280;47337;54.068;12.114;2022-12-13T06:52:45;100673.41;;;-3.28;100.00
61472;BME280;47337;54.068;12.114;2022-12-13T06:55:11;100683.72;;;-3.27;100.00
61472;BME280;47337;54.068;12.114;2022-12-13T06:57:36;100682.38;;;-3.22;100.00
61472;BME280;47337;54.068;12.114;2022-12-13T07:00:03;100684.94;;;-3.22;100.00
61472;BME280;47337;54.068;12.114;2022-12-13T07:02:29;100685.41;;;-3.27;100.00
61472;BME280;47337;54.068;12.114;2022-12-13T07:04:55;100686.81;;;-3.33;100.00
61472;BME280;47337;54.068;12.114;2022-12-13T07:07:20;100684.47;;;-3.43;100.00
61472;BME280;47337;54.068;12.114;2022-12-13T07:09:46;100690.06;;;-3.48;100.00
61472;BME280;47337;54.068;12.114;2022-12-13T07:12:13;100689.47;;;-3.44;100.00
61472;BME280;47337;54.068;12.114;2022-12-13T07:14:39;100692.72;;;-3.47;100.00
61472;BME280;47337;54.068;12.114;2022-12-13T07:17:04;100702.09;;;-3.47;100.00
61472;BME280;47337;54.068;12.114;2022-12-13T07:19:30;100698.66;;;-3.48;100.00
61472;BME280;47337;54.068;12.114;2022-12-13T07:21:55;100701.72;;;-3.53;100.00
61472;BME280;47337;54.068;12.114;2022-12-13T07:24:21;100706.63;;;-3.56;100.00
61472;BME280;47337;54.068;12.114;2022-12-13T07:26:48;100706.94;;;-3.65;100.00
61472;BME280;47337;54.068;12.114;2022-12-13T07:29:14;100702.50;;;-3.67;100.00
61472;BME280;47337;54.068;12.114;2022-12-13T07:31:39;100712.53;;;-3.71;100.00
61472;BME280;47337;54.068;12.114;2022-12-13T07:34:05;100723.63;;;-3.72;100.00
61472;BME280;47337;54.068;12.114;2022-12-13T07:36:30;100731.31;;;-3.72;100.00
61472;BME280;47337;54.068;12.114;2022-12-13T07:38:56;100723.19;;;-3.78;100.00
61472;BME280;47337;54.068;12.114;2022-12-13T07:41:23;100736.13;;;-3.76;100.00
61472;BME280;47337;54.068;12.114;2022-12-13T07:43:50;100736.13;;;-3.76;100.00
61472;BME280;47337;54.068;12.114;2022-12-13T07:46:15;100740.34;;;-3.77;100.00
61472;BME280;47337;54.068;12.114;2022-12-13T07:48:40;100740.56;;;-3.74;100.00
61472;BME280;47337;54.068;12.114;2022-12-13T07:51:09;100739.34;;;-3.79;100.00
61472;BME280;47337;54.068;12.114;2022-12-13T07:53:36;100742.53;;;-3.83;100.00
61472;BME280;47337;54.068;12.114;2022-12-13T07:56:10;100742.19;;;-3.87;100.00
61472;BME280;47337;54.068;12.114;2022-12-13T07:58:36;100744.19;;;-3.83;100.00
61472;BME280;47337;54.068;12.114;2022-12-13T08:01:07;100751.00;;;-3.71;100.00
61472;BME280;47337;54.068;12.114;2022-12-13T08:03:34;100753.56;;;-3.71;100.00
61472;BME280;47337;54.068;12.114;2022-12-13T08:06:06;100755.09;;;-3.61;100.00
61472;BME280;47337;54.068;12.114;2022-12-13T08:08:32;100761.19;;;-3.59;100.00
61472;BME280;47337;54.068;12.114;2022-12-13T08:13:30;100760.91;;;-3.63;100.00
61472;BME280;47337;54.068;12.114;2022-12-13T08:16:06;100769.06;;;-3.69;100.00
61472;BME280;47337;54.068;12.114;2022-12-13T08:18:32;100766.31;;;-3.72;100.00
61472;BME280;47337;54.068;12.114;2022-12-13T08:20:58;100769.66;;;-3.73;100.00
61472;BME280;47337;54.068;12.114;2022-12-13T08:23:29;100778.06;;;-3.62;100.00
61472;BME280;47337;54.068;12.114;2022-12-13T08:25:54;100775.09;;;-3.55;100.00
61472;BME280;47337;54.068;12.114;2022-12-13T08:28:24;100778.88;;;-3.50;100.00
61472;BME280;47337;54.068;12.114;2022-12-13T08:30:50;100783.28;;;-3.48;100.00
61472;BME280;47337;54.068;12.114;2022-12-13T08:33:19;100779.28;;;-3.44;100.00
61472;BME280;47337;54.068;12.114;2022-12-13T08:35:49;100775.34;;;-3.39;100.00
61472;BME280;47337;54.068;12.114;2022-12-13T08:38:14;100774.72;;;-3.35;100.00
61472;BME280;47337;54.068;12.114;2022-12-13T08:40:40;100779.56;;;-3.26;100.00
61472;BME280;47337;54.068;12.114;2022-12-13T08:43:05;100784.50;;;-3.16;100.00
61472;BME280;47337;54.068;12.114;2022-12-13T08:45:31;100783.72;;;-3.15;100.00
61472;BME280;47337;54.068;12.114;2022-12-13T08:47:59;100785.03;;;-3.09;100.00
61472;BME280;47337;54.068;12.114;2022-12-13T08:50:25;100784.94;;;-2.97;100.00
61472;BME280;47337;54.068;12.114;2022-12-13T08:52:50;100794.88;;;-2.88;100.00
61472;BME280;47337;54.068;12.114;2022-12-13T08:55:16;100792.28;;;-2.75;100.00
61472;BME280;47337;54.068;12.114;2022-12-13T08:57:43;100803.75;;;-2.57;100.00
61472;BME280;47337;54.068;12.114;2022-12-13T09:00:14;100801.00;;;-2.32;100.00
61472;BME280;47337;54.068;12.114;2022-12-13T09:02:40;100810.75;;;-2.13;100.00
61472;BME280;47337;54.068;12.114;2022-12-13T09:05:07;100801.03;;;-1.90;100.00
61472;BME280;47337;54.068;12.114;2022-12-13T09:07:33;100791.66;;;-1.74;100.00
61472;BME280;47337;54.068;12.114;2022-12-13T09:10:05;100789.47;;;-1.54;100.00
61472;BME280;47337;54.068;12.114;2022-12-13T09:12:31;100789.63;;;-1.36;100.00
61472;BME280;47337;54.068;12.114;2022-12-13T09:15:01;100785.47;;;-1.19;100.00
61472;BME280;47337;54.068;12.114;2022-12-13T09:17:28;100790.06;;;-0.99;100.00
61472;BME280;47337;54.068;12.114;2022-12-13T09:19:56;100789.78;;;-0.89;100.00
61472;BME280;47337;54.068;12.114;2022-12-13T09:22:22;100783.72;;;-0.75;100.00
61472;BME280;47337;54.068;12.114;2022-12-13T09:24:49;100779.88;;;-0.50;100.00
61472;BME280;47337;54.068;12.114;2022-12-13T09:27:15;100779.78;;;-0.52;100.00
61472;BME280;47337;54.068;12.114;2022-12-13T09:29:44;100777.16;;;-0.37;100.00
61472;BME280;47337;54.068;12.114;2022-12-13T09:32:11;100768.03;;;-0.30;100.00
61472;BME280;47337;54.068;12.114;2022-12-13T09:34:36;100766.03;;;-0.20;100.00
61472;BME280;47337;54.068;12.114;2022-12-13T09:37:03;100765.38;;;0.00;100.00
61472;BME280;47337;54.068;12.114;2022-12-13T09:39:28;100758.19;;;0.11;100.00
61472;BME280;47337;54.068;12.114;2022-12-13T09:41:55;100758.69;;;0.20;100.00
61472;BME280;47337;54.068;12.114;2022-12-13T09:44:25;100755.19;;;0.36;100.00
61472;BME280;47337;54.068;12.114;2022-12-13T09:46:53;100750.66;;;0.32;100.00
61472;BME280;47337;54.068;12.114;2022-12-13T09:51:51;100745.66;;;0.35;100.00
61472;BME280;47337;54.068;12.114;2022-12-13T09:54:21;100758.09;;;0.42;100.00
61472;BME280;47337;54.068;12.114;2022-12-13T09:56:50;100751.97;;;0.40;100.00
61472;BME280;47337;54.068;12.114;2022-12-13T09:59:17;100741.94;;;0.46;100.00
61472;BME280;47337;54.068;12.114;2022-12-13T10:01:45;100743.31;;;0.40;100.00
61472;BME280;47337;54.068;12.114;2022-12-13T10:04:13;100742.28;;;0.36;100.00
61472;BME280;47337;54.068;12.114;2022-12-13T10:06:39;100745.19;;;0.42;100.00
61472;BME280;47337;54.068;12.114;2022-12-13T10:09:06;100737.13;;;0.36;100.00
61472;BME280;47337;54.068;12.114;2022-12-13T10:11:35;100738.59;;;0.31;100.00
61472;BME280;47337;54.068;12.114;2022-12-13T10:14:26;100741.97;;;0.30;100.00
61472;BME280;47337;54.068;12.114;2022-12-13T10:16:59;100744.78;;;0.34;100.00
61472;BME280;47337;54.068;12.114;2022-12-13T10:19:33;100740.22;;;0.29;100.00
61472;BME280;47337;54.068;12.114;2022-12-13T10:22:00;100745.56;;;0.33;100.00
61472;BME280;47337;54.068;12.114;2022-12-13T10:27:19;100752.78;;;0.23;100.00
61472;BME280;47337;54.068;12.114;2022-12-13T10:32:59;100751.00;;;0.22;100.00
61472;BME280;47337;54.068;12.114;2022-12-13T10:37:50;100746.59;;;0.19;100.00
61472;BME280;47337;54.068;12.114;2022-12-13T10:40:27;100745.78;;;0.20;100.00
61472;BME280;47337;54.068;12.114;2022-12-13T10:43:17;100745.13;;;0.24;100.00
61472;BME280;47337;54.068;12.114;2022-12-13T10:48:36;100740.03;;;0.26;100.00
61472;BME280;47337;54.068;12.114;2022-12-13T10:51:09;100737.28;;;0.23;100.00
61472;BME280;47337;54.068;12.114;2022-12-13T10:53:47;100735.84;;;0.28;100.00
61472;BME280;47337;54.068;12.114;2022-12-13T10:56:18;100738.50;;;0.29;100.00
61472;BME280;47337;54.068;12.114;2022-12-13T10:58:46;100714.47;;;0.30;100.00
61472;BME280;47337;54.068;12.114;2022-12-13T11:01:20;100723.16;;;0.32;100.00
61472;BME280;47337;54.068;12.114;2022-12-13T11:04:00;100723.66;;;0.42;100.00
61472;BME280;47337;54.068;12.114;2022-12-13T11:06:45;100717.88;;;0.47;100.00
61472;BME280;47337;54.068;12.114;2022-12-13T11:09:23;100706.22;;;0.38;100.00
61472;BME280;47337;54.068;12.114;2022-12-13T11:11:50;100695.81;;;0.36;100.00
61472;BME280;47337;54.068;12.114;2022-12-13T11:14:19;100685.19;;;0.30;100.00
61472;BME280;47337;54.068;12.114;2022-12-13T11:16:50;100683.66;;;0.51;100.00
61472;BME280;47337;54.068;12.114;2022-12-13T11:19:25;100674.97;;;0.49;100.00
61472;BME280;47337;54.068;12.114;2022-12-13T11:21:51;100657.41;;;0.42;100.00
61472;BME280;47337;54.068;12.114;2022-12-13T11:24:25;100652.25;;;0.42;100.00
61472;BME280;47337;54.068;12.114;2022-12-13T11:27:19;100644.78;;;0.48;100.00
61472;BME280;47337;54.068;12.114;2022-12-13T11:35:19;100622.34;;;0.65;100.00
61472;BME280;47337;54.068;12.114;2022-12-13T11:37:51;100607.94;;;0.70;100.00
61472;BME280;47337;54.068;12.114;2022-12-13T11:40:27;100603.88;;;0.75;100.00
61472;BME280;47337;54.068;12.114;2022-12-13T11:45:44;100586.34;;;0.87;100.00
61472;BME280;47337;54.068;12.114;2022-12-13T11:48:35;100583.69;;;0.86;100.00
61472;BME280;47337;54.068;12.114;2022-12-13T11:51:08;100574.25;;;0.86;100.00
61472;BME280;47337;54.068;12.114;2022-12-13T11:53:51;100575.28;;;0.90;100.00
61472;BME280;47337;54.068;12.114;2022-12-13T11:56:32;100557.59;;;0.99;100.00
61472;BME280;47337;54.068;12.114;2022-12-13T12:04:35;100537.91;;;1.01;100.00
61472;BME280;47337;54.068;12.114;2022-12-13T12:09:30;100524.06;;;1.20;100.00
61472;BME280;47337;54.068;12.114;2022-12-13T12:12:03;100510.47;;;1.24;100.00
61472;BME280;47337;54.068;12.114;2022-12-13T12:17:12;100502.44;;;1.37;100.00
61472;BME280;47337;54.068;12.114;2022-12-13T12:19:42;100489.16;;;1.29;100.00
61472;BME280;47337;54.068;12.114;2022-12-13T12:30:05;100440.47;;;1.19;100.00
61472;BME280;47337;54.068;12.114;2022-12-13T12:43:15;100442.72;;;0.91;100.00
61472;BME280;47337;54.068;12.114;2022-12-13T12:51:37;100455.31;;;0.83;100.00
61472;BME280;47337;54.068;12.114;2022-12-13T12:54:25;100460.66;;;0.88;100.00
61472;BME280;47337;54.068;12.114;2022-12-13T13:05:35;100479.63;;;0.88;100.00
61472;BME280;47337;54.068;12.114;2022-12-13T13:10:38;100480.72;;;0.93;100.00
61472;BME280;47337;54.068;12.114;2022-12-13T13:13:05;100487.59;;;0.93;100.00
61472;BME280;47337;54.068;12.114;2022-12-13T13:17:59;100489.06;;;0.88;100.00
61472;BME280;47337;54.068;12.114;2022-12-13T13:20:27;100497.38;;;0.81;100.00
61472;BME280;47337;54.068;12.114;2022-12-13T13:22:56;100495.59;;;0.80;100.00
61472;BME280;47337;54.068;12.114;2022-12-13T13:25:33;100493.84;;;0.79;100.00
61472;BME280;47337;54.068;12.114;2022-12-13T13:28:01;100494.56;;;0.76;100.00
61472;BME280;47337;54.068;12.114;2022-12-13T13:30:28;100501.66;;;0.80;100.00
61472;BME280;47337;54.068;12.114;2022-12-13T13:32:55;100517.91;;;0.78;100.00
61472;BME280;47337;54.068;12.114;2022-12-13T13:38:02;100523.38;;;0.85;100.00
61472;BME280;47337;54.068;12.114;2022-12-13T13:40:34;100525.94;;;0.84;100.00
61472;BME280;47337;54.068;12.114;2022-12-13T13:45:26;100525.56;;;0.76;100.00
61472;BME280;47337;54.068;12.114;2022-12-13T14:07:00;100508.94;;;0.15;100.00
61472;BME280;47337;54.068;12.114;2022-12-13T14:12:37;100512.72;;;-0.14;100.00
61472;BME280;47337;54.068;12.114;2022-12-13T14:21:19;100533.22;;;-0.51;100.00
61472;BME280;47337;54.068;12.114;2022-12-13T14:29:03;100559.69;;;-0.88;100.00
61472;BME280;47337;54.068;12.114;2022-12-13T14:31:38;100565.00;;;-1.01;100.00
61472;BME280;47337;54.068;12.114;2022-12-13T14:34:13;100571.09;;;-1.15;100.00
61472;BME280;47337;54.068;12.114;2022-12-13T14:36:41;100572.69;;;-1.33;100.00
61472;BME280;47337;54.068;12.114;2022-12-13T14:39:15;100579.34;;;-1.53;100.00
61472;BME280;47337;54.068;12.114;2022-12-13T14:41:46;100581.13;;;-1.67;100.00
61472;BME280;47337;54.068;12.114;2022-12-13T14:44:15;100594.09;;;-1.80;100.00
61472;BME280;47337;54.068;12.114;2022-12-13T14:46:49;100596.00;;;-1.92;100.00
61472;BME280;47337;54.068;12.114;2022-12-13T14:49:17;100604.63;;;-2.06;100.00
61472;BME280;47337;54.068;12.114;2022-12-13T14:51:45;100604.00;;;-2.17;100.00
61472;BME280;47337;54.068;12.114;2022-12-13T14:54:22;100622.34;;;-2.26;100.00
61472;BME280;47337;54.068;12.114;2022-12-13T14:56:56;100627.47;;;-2.40;100.00
61472;BME280;47337;54.068;12.114;2022-12-13T14:59:29;100627.63;;;-2.52;100.00
61472;BME280;47337;54.068;12.114;2022-12-13T15:01:58;100631.22;;;-2.63;100.00
61472;BME280;47337;54.068;12.114;2022-12-13T15:09:41;100642.84;;;-2.98;100.00
61472;BME280;47337;54.068;12.114;2022-12-13T15:12:12;100643.41;;;-3.02;100.00
61472;BME280;47337;54.068;12.114;2022-12-13T15:14:42;100642.06;;;-3.10;100.00
61472;BME280;47337;54.068;12.114;2022-12-13T15:17:29;100648.91;;;-2.96;100.00